Etusivu
METAR-TAF:

METAR-TAF

Lentoasemat :

Wakkanai, Japani

Leveyspiiri: 45-24N, Pituuspiiri: 141-48E, korkeus merenpinnasta: 8 m

Tämänhetkinen sää

Tämä raportti tehtiin 33 minuuttia sitten, kello 09.15 UTC
Tuuli 24 kn idästä
Lämpötila -4°C
Kosteus 93%
Ilmanpaine 1004 hPa
Näkyvyys: 0800 m
Muutamia pilviä 500 ft:n korkeudessa
Hajonneita pilviä 1000 ft:n korkeudessa
lumituiskua, lumikuuroja

METAR: RJCW 170915Z 08024KT 0800 R08/1000V1600U BLSN SHSN FEW005 BKN010 M04/M05 Q1004 RMK 1ST005 7ST010 A2966

Aika: 18:48 (09:48 UTC)


TAF: puuttuu

Säähavainnot ja -ennusteet yli 4000 lentoasemalta (METAR- ja TAF-raportit).

Käytössä olevat sääasemat on merkitty karttaan keltaisilla ja punaisilla pisteillä.

Aseta hiiri pisteen päälle nähdäksesi sääaseman nimen.

Klikkaa sitten nähdäksesi säähavainnot ja -ennusteet.

Kartan vaihtaminen: klikkaa mustalla rastilla varustettuja vihreitä pisteitä, niin voit zoomata sisään; viivalla varustettua vihreää pistettä, niin voit zoomata ulos tai vihreitä nuolia, niin pääset viereisille kartoille.


METAR-TAF: